createdAt,value
2022-10-19T08:22:05.385Z,100.00
2022-10-19T08:24:08.651Z,100.00
2022-10-19T08:26:10.863Z,100.00
2022-10-19T08:28:13.225Z,100.00
2022-10-19T08:30:15.719Z,100.00
2022-10-19T08:32:18.645Z,100.00
2022-10-19T08:34:21.705Z,100.00
2022-10-19T08:36:24.501Z,100.00
2022-10-19T08:38:26.754Z,100.00
2022-10-19T08:40:31.255Z,100.00
2022-10-19T08:43:11.889Z,100.00
2022-10-19T08:45:33.491Z,100.00
2022-10-19T08:47:54.147Z,100.00
2022-10-19T08:49:57.650Z,100.00
2022-10-19T08:52:04.455Z,100.00
2022-10-19T08:54:15.747Z,100.00
2022-10-19T08:56:51.103Z,100.00
2022-10-19T08:59:11.751Z,100.00
2022-10-19T09:01:37.554Z,100.00
2022-10-19T09:04:21.300Z,100.00
2022-10-19T09:06:34.228Z,100.00
2022-10-19T09:08:38.995Z,100.00
2022-10-19T09:10:44.112Z,100.00
2022-10-19T09:13:05.464Z,100.00
2022-10-19T09:15:12.957Z,100.00
2022-10-19T09:17:17.220Z,100.00
2022-10-19T09:19:29.232Z,100.00
2022-10-19T09:21:47.898Z,100.00
2022-10-19T09:24:02.810Z,100.00
2022-10-19T09:26:15.144Z,100.00
2022-10-19T09:28:17.366Z,100.00
2022-10-19T09:30:24.231Z,100.00
2022-10-19T09:32:37.011Z,100.00
2022-10-19T09:34:51.680Z,100.00
2022-10-19T09:36:57.276Z,100.00
2022-10-19T09:39:02.751Z,100.00
2022-10-19T09:41:16.770Z,100.00
2022-10-19T09:43:21.784Z,100.00
2022-10-19T09:45:35.884Z,100.00
2022-10-19T09:47:42.467Z,100.00
2022-10-19T09:49:47.787Z,100.00
2022-10-19T09:51:52.797Z,100.00
2022-10-19T09:53:55.967Z,100.00
2022-10-19T09:56:03.089Z,100.00
2022-10-19T09:58:05.581Z,100.00
2022-10-19T10:00:31.662Z,100.00
2022-10-19T10:02:37.518Z,100.00
2022-10-19T10:04:40.267Z,100.00
2022-10-19T10:06:44.742Z,100.00
2022-10-19T10:08:58.084Z,100.00
2022-10-19T10:11:44.096Z,100.00
2022-10-19T10:13:52.349Z,100.00
2022-10-19T10:15:58.881Z,100.00
2022-10-19T10:18:01.180Z,100.00
2022-10-19T10:20:18.047Z,100.00
2022-10-19T10:22:32.143Z,100.00
2022-10-19T10:24:34.700Z,100.00
2022-10-19T10:26:43.905Z,100.00
2022-10-19T10:28:48.775Z,100.00
2022-10-19T10:30:59.839Z,100.00
2022-10-19T10:33:13.466Z,100.00
2022-10-19T10:35:36.024Z,100.00
2022-10-19T10:37:45.547Z,100.00
2022-10-19T10:39:52.573Z,100.00
2022-10-19T10:42:00.049Z,96.40
2022-10-19T10:44:07.135Z,95.66
2022-10-19T10:46:16.889Z,94.29
2022-10-19T10:48:36.209Z,92.90
2022-10-19T10:50:38.639Z,92.16
2022-10-19T10:52:55.485Z,91.62
2022-10-19T10:55:04.752Z,89.53
2022-10-19T10:57:20.612Z,88.47
2022-10-19T10:59:28.847Z,86.68
2022-10-19T11:01:40.149Z,84.75
2022-10-19T11:03:49.790Z,84.81
2022-10-19T11:05:57.552Z,80.05
2022-10-19T11:08:12.031Z,72.03
2022-10-19T11:10:24.115Z,65.01
2022-10-19T11:12:46.554Z,56.50
2022-10-19T11:14:51.142Z,50.21
2022-10-19T11:16:56.847Z,46.57
2022-10-19T11:19:18.752Z,45.22
2022-10-19T11:21:44.338Z,43.43
2022-10-19T11:24:05.405Z,42.49
2022-10-19T11:26:38.453Z,42.17
2022-10-19T11:29:12.838Z,39.68
2022-10-19T11:31:21.308Z,39.17
2022-10-19T11:33:37.497Z,40.99
2022-10-19T11:35:55.027Z,40.85
2022-10-19T11:38:30.243Z,42.03
2022-10-19T11:40:54.277Z,43.92
2022-10-19T11:43:14.720Z,43.17
2022-10-19T11:45:39.004Z,41.87
2022-10-19T11:48:09.858Z,41.26
2022-10-19T11:50:33.447Z,41.60
2022-10-19T11:52:59.618Z,42.17
2022-10-19T11:55:23.857Z,41.86
2022-10-19T11:57:32.751Z,44.52
2022-10-19T11:59:47.430Z,45.32
2022-10-19T12:02:17.683Z,43.30
2022-10-19T12:04:28.622Z,42.35
2022-10-19T12:06:56.080Z,46.00
2022-10-19T12:09:06.805Z,49.22
2022-10-19T12:11:50.611Z,52.62
2022-10-19T12:13:57.404Z,56.07
2022-10-19T12:16:01.031Z,58.56
2022-10-19T12:18:34.568Z,60.67
2022-10-19T12:20:46.819Z,60.03
2022-10-19T12:22:49.756Z,60.92
2022-10-19T12:24:55.523Z,60.72
2022-10-19T12:26:59.828Z,60.13
2022-10-19T12:29:07.143Z,59.65
2022-10-19T12:31:11.489Z,57.84
2022-10-19T12:33:23.367Z,57.86
2022-10-19T12:35:31.275Z,58.83
2022-10-19T12:37:47.469Z,59.30
2022-10-19T12:39:58.154Z,60.46
2022-10-19T12:42:20.169Z,61.85
2022-10-19T12:45:00.294Z,62.89
2022-10-19T12:47:15.422Z,63.82
2022-10-19T12:49:27.031Z,64.26
2022-10-19T12:51:29.535Z,63.50
2022-10-19T12:53:41.332Z,63.16
2022-10-19T12:55:45.666Z,62.97
2022-10-19T12:57:57.143Z,62.10
2022-10-19T13:00:03.786Z,61.42
2022-10-19T13:02:25.545Z,61.17
2022-10-19T13:04:31.491Z,60.90
2022-10-19T13:06:36.777Z,60.65
2022-10-19T13:08:46.367Z,60.60
2022-10-19T13:11:14.770Z,60.12
2022-10-19T13:13:58.592Z,59.66
2022-10-19T13:16:01.137Z,58.61
2022-10-19T13:18:16.825Z,57.61
2022-10-19T13:20:19.140Z,55.47
2022-10-19T13:22:28.600Z,54.15
2022-10-19T13:24:34.414Z,54.25
2022-10-19T13:26:37.597Z,54.13
2022-10-19T13:28:53.341Z,54.25
2022-10-19T13:31:04.983Z,54.24
2022-10-19T13:33:33.131Z,54.25
2022-10-19T13:35:36.096Z,54.37
2022-10-19T13:37:38.441Z,54.97
2022-10-19T13:39:42.414Z,55.19
2022-10-19T13:41:48.880Z,55.35
2022-10-19T13:44:09.186Z,56.72
2022-10-19T13:46:43.306Z,58.34
2022-10-19T13:49:01.233Z,59.78
2022-10-19T13:51:10.599Z,61.00
2022-10-19T13:53:40.920Z,62.27
2022-10-19T13:56:08.121Z,63.15
2022-10-19T13:58:34.920Z,64.67
2022-10-19T14:01:22.321Z,65.87
2022-10-19T14:03:46.682Z,68.37
2022-10-19T14:06:00.345Z,69.36
2022-10-19T14:08:39.880Z,70.31
2022-10-19T14:11:01.142Z,71.34
2022-10-19T14:13:06.593Z,72.38
2022-10-19T14:15:18.174Z,73.29
2022-10-19T14:17:27.957Z,73.93
2022-10-19T14:19:43.433Z,73.94
2022-10-19T14:21:45.710Z,74.67
2022-10-19T14:23:48.218Z,74.72
2022-10-19T14:26:20.366Z,74.54
2022-10-19T14:28:23.757Z,74.47
2022-10-19T14:30:32.412Z,75.08
2022-10-19T14:32:35.561Z,75.96
2022-10-19T14:34:42.801Z,76.43
2022-10-19T14:36:48.409Z,76.84
2022-10-19T14:38:54.460Z,77.76
2022-10-19T14:40:56.785Z,78.02
2022-10-19T14:43:00.867Z,77.25
2022-10-19T14:45:03.857Z,77.79
2022-10-19T14:47:18.428Z,78.02
2022-10-19T14:49:20.968Z,77.36
2022-10-19T14:51:38.659Z,77.34
2022-10-19T14:53:46.966Z,75.73
2022-10-19T14:55:54.051Z,74.20
2022-10-19T14:57:56.530Z,72.83
2022-10-19T15:00:02.644Z,71.74
2022-10-19T15:02:16.775Z,71.23
2022-10-19T15:04:26.596Z,71.60
2022-10-19T15:06:32.808Z,72.18
2022-10-19T15:08:42.706Z,72.32
2022-10-19T15:10:47.185Z,73.13
2022-10-19T15:12:51.700Z,74.08
2022-10-19T15:14:55.228Z,74.49
2022-10-19T15:17:03.552Z,74.71
2022-10-19T15:19:14.352Z,72.18
2022-10-19T15:21:21.654Z,71.63
2022-10-19T15:23:34.786Z,71.52
2022-10-19T15:25:39.579Z,71.86
2022-10-19T15:27:47.161Z,71.10
2022-10-19T15:30:21.494Z,72.03
2022-10-19T15:32:30.059Z,73.09
2022-10-19T15:34:32.755Z,73.53
2022-10-19T15:36:35.017Z,74.39
2022-10-19T15:38:37.370Z,74.99
2022-10-19T15:40:42.316Z,75.09
2022-10-19T15:42:46.902Z,74.83
2022-10-19T15:44:49.223Z,75.64
2022-10-19T15:47:13.402Z,76.36
2022-10-19T15:49:15.527Z,77.45
2022-10-19T15:51:27.538Z,78.31
2022-10-19T15:53:30.043Z,79.58
2022-10-19T15:55:32.619Z,80.59
2022-10-19T15:57:37.355Z,81.75
2022-10-19T15:59:41.398Z,82.88
2022-10-19T16:01:45.321Z,83.88
2022-10-19T16:03:49.856Z,84.90
2022-10-19T16:05:52.174Z,85.67
2022-10-19T16:07:55.030Z,86.47
2022-10-19T16:09:58.034Z,87.46
2022-10-19T16:12:00.370Z,87.53
2022-10-19T16:14:02.840Z,87.53
2022-10-19T16:16:11.219Z,87.43
2022-10-19T16:18:13.726Z,87.00
2022-10-19T16:20:18.850Z,86.50
2022-10-19T16:22:21.537Z,86.00
2022-10-19T16:24:23.866Z,85.24
2022-10-19T16:26:26.701Z,85.23
2022-10-19T16:28:29.642Z,84.36
2022-10-19T16:30:35.033Z,83.92
2022-10-19T16:32:38.460Z,84.05
2022-10-19T16:34:41.490Z,84.63
2022-10-19T16:36:43.721Z,85.68
2022-10-19T16:38:47.352Z,86.39
2022-10-19T16:40:50.420Z,87.77
2022-10-19T16:42:52.695Z,88.75
2022-10-19T16:44:55.590Z,89.22
2022-10-19T16:46:59.113Z,89.52
2022-10-19T16:49:01.726Z,89.91
2022-10-19T16:51:07.379Z,90.09
2022-10-19T16:53:11.140Z,90.53
2022-10-19T16:55:13.809Z,90.73
2022-10-19T16:57:16.015Z,91.05
2022-10-19T16:59:19.529Z,91.49
2022-10-19T17:01:22.842Z,91.78
2022-10-19T17:03:25.464Z,92.14
2022-10-19T17:05:28.204Z,92.56
2022-10-19T17:07:30.578Z,93.03
2022-10-19T17:09:42.145Z,93.79
2022-10-19T17:11:46.020Z,93.57
2022-10-19T17:13:50.841Z,93.79
2022-10-19T17:15:53.217Z,94.12
2022-10-19T17:17:58.471Z,94.04
2022-10-19T17:20:01.091Z,94.09
2022-10-19T17:22:05.454Z,94.14
2022-10-19T17:24:15.582Z,94.32
2022-10-19T17:26:25.359Z,94.91
2022-10-19T17:28:28.638Z,95.39
2022-10-19T17:30:31.482Z,95.44
2022-10-19T17:32:34.412Z,95.47
2022-10-19T17:34:37.918Z,95.29
2022-10-19T17:36:45.090Z,95.18
2022-10-19T17:38:48.572Z,95.48
2022-10-19T17:40:51.353Z,96.24
2022-10-19T17:42:54.573Z,97.37
2022-10-19T17:44:57.480Z,97.82
2022-10-19T17:47:01.457Z,98.50
2022-10-19T17:49:06.947Z,99.19
2022-10-19T17:51:21.043Z,99.75
2022-10-19T17:53:23.434Z,100.00
2022-10-19T17:55:27.559Z,100.00
2022-10-19T17:57:30.221Z,100.00
2022-10-19T17:59:46.766Z,100.00
2022-10-19T18:01:55.472Z,100.00
2022-10-19T18:03:58.146Z,100.00
2022-10-19T18:06:13.021Z,100.00
2022-10-19T18:08:15.733Z,100.00
2022-10-19T18:10:18.349Z,100.00
2022-10-19T18:12:21.394Z,100.00
2022-10-19T18:14:23.741Z,100.00
2022-10-19T18:16:32.770Z,100.00
2022-10-19T18:18:37.758Z,100.00
2022-10-19T18:20:40.941Z,100.00
2022-10-19T18:22:46.219Z,100.00
2022-10-19T18:24:50.592Z,100.00
2022-10-19T18:26:53.394Z,100.00
2022-10-19T18:28:58.496Z,100.00
2022-10-19T18:31:21.996Z,100.00
2022-10-19T18:33:29.096Z,100.00
2022-10-19T18:35:39.947Z,100.00
2022-10-19T18:37:42.767Z,100.00
2022-10-19T18:39:45.551Z,100.00
2022-10-19T18:41:52.714Z,100.00
2022-10-19T18:43:58.067Z,100.00
2022-10-19T18:46:01.503Z,100.00
2022-10-19T18:48:04.709Z,100.00
2022-10-19T18:50:07.689Z,100.00
2022-10-19T18:52:10.973Z,100.00
2022-10-19T18:54:15.822Z,100.00
2022-10-19T18:56:20.609Z,100.00
2022-10-19T18:58:23.971Z,100.00
2022-10-19T19:00:27.541Z,100.00
2022-10-19T19:02:42.227Z,100.00
2022-10-19T19:04:48.934Z,100.00
2022-10-19T19:06:52.480Z,100.00
2022-10-19T19:08:59.939Z,100.00
2022-10-19T19:11:24.845Z,100.00
2022-10-19T19:13:31.038Z,100.00
2022-10-19T19:15:33.694Z,100.00
2022-10-19T19:17:37.215Z,100.00
2022-10-19T19:19:41.317Z,100.00
2022-10-19T19:21:45.106Z,100.00
2022-10-19T19:23:48.719Z,100.00
2022-10-19T19:25:51.747Z,100.00
2022-10-19T19:27:54.126Z,100.00
2022-10-19T19:29:58.885Z,100.00
2022-10-19T19:32:05.073Z,100.00
2022-10-19T19:34:10.446Z,100.00
2022-10-19T19:36:15.698Z,100.00
2022-10-19T19:38:18.851Z,100.00
2022-10-19T19:40:21.759Z,100.00
2022-10-19T19:42:27.738Z,100.00
2022-10-19T19:44:31.991Z,100.00
2022-10-19T19:46:35.529Z,100.00
2022-10-19T19:48:39.298Z,100.00
2022-10-19T19:50:47.515Z,100.00
2022-10-19T19:52:58.620Z,100.00
2022-10-19T19:57:06.571Z,100.00
2022-10-19T19:59:11.491Z,100.00
2022-10-19T20:01:20.077Z,100.00
2022-10-19T20:03:23.242Z,100.00
2022-10-19T20:05:32.678Z,100.00
2022-10-19T20:07:38.954Z,100.00
2022-10-19T20:09:47.288Z,100.00
2022-10-19T20:11:49.978Z,100.00
2022-10-19T20:13:53.332Z,100.00
2022-10-19T20:15:56.479Z,100.00
2022-10-19T20:17:59.307Z,100.00
2022-10-19T20:20:02.068Z,100.00
2022-10-19T20:22:06.774Z,100.00
2022-10-19T20:24:10.521Z,100.00
2022-10-19T20:26:21.419Z,100.00
2022-10-19T20:28:25.882Z,100.00
2022-10-19T20:30:28.184Z,100.00
2022-10-19T20:32:30.500Z,100.00
2022-10-19T20:34:35.772Z,100.00
2022-10-19T20:36:38.599Z,100.00
2022-10-19T20:38:46.699Z,100.00
2022-10-19T20:40:49.480Z,100.00
2022-10-19T20:42:52.120Z,100.00
2022-10-19T20:44:55.920Z,100.00
2022-10-19T20:46:58.573Z,100.00
2022-10-19T20:49:01.725Z,100.00
2022-10-19T20:51:30.574Z,100.00
2022-10-19T20:53:35.306Z,100.00
2022-10-19T20:55:37.563Z,100.00
2022-10-19T20:57:40.153Z,100.00
2022-10-19T20:59:43.976Z,100.00
2022-10-19T21:01:50.539Z,100.00
2022-10-19T21:03:55.167Z,100.00
2022-10-19T21:05:57.697Z,100.00
2022-10-19T21:08:00.017Z,100.00
2022-10-19T21:10:02.511Z,100.00
2022-10-19T21:12:05.035Z,100.00
2022-10-19T21:14:11.677Z,100.00
2022-10-19T21:16:18.647Z,100.00
2022-10-19T21:18:21.374Z,100.00
2022-10-19T21:20:23.647Z,100.00
2022-10-19T21:22:25.863Z,100.00
2022-10-19T21:24:34.459Z,100.00
2022-10-19T21:26:39.143Z,100.00
2022-10-19T21:28:49.250Z,100.00
2022-10-19T21:30:51.771Z,100.00
2022-10-19T21:32:53.979Z,100.00
